createdAt,value
2022-12-18T00:00:42.806Z,37.18
2022-12-18T00:10:44.420Z,37.33
2022-12-18T00:20:45.833Z,36.74
2022-12-18T00:30:47.222Z,37.34
2022-12-18T00:40:48.703Z,37.39
2022-12-18T00:50:50.360Z,36.89
2022-12-18T01:00:52.079Z,37.31
2022-12-18T01:10:54.518Z,37.39
2022-12-18T01:20:55.879Z,37.50
2022-12-18T01:30:57.333Z,37.36
2022-12-18T01:41:01.966Z,37.15
2022-12-18T01:51:03.582Z,37.30
2022-12-18T02:01:05.426Z,37.37
2022-12-18T02:11:25.453Z,37.36
2022-12-18T02:21:57.034Z,37.56
2022-12-18T02:32:01.532Z,37.27
2022-12-18T02:42:08.825Z,37.33
2022-12-18T02:52:30.028Z,37.32
2022-12-18T03:02:49.971Z,37.40
2022-12-18T03:13:02.834Z,37.32
2022-12-18T03:23:10.992Z,37.07
2022-12-18T03:33:36.618Z,37.20
2022-12-18T03:43:55.795Z,36.59
2022-12-18T03:53:59.431Z,37.12
2022-12-18T04:04:01.970Z,37.35
2022-12-18T04:14:07.057Z,37.21
2022-12-18T04:24:09.301Z,37.17
2022-12-18T04:34:10.671Z,37.00
2022-12-18T04:44:12.060Z,37.17
2022-12-18T04:54:14.695Z,37.26
2022-12-18T05:04:16.644Z,37.25
2022-12-18T05:14:19.128Z,37.30
2022-12-18T05:24:20.517Z,36.84
2022-12-18T05:34:22.536Z,36.89
2022-12-18T05:44:24.001Z,36.76
2022-12-18T05:54:27.442Z,36.58
2022-12-18T06:04:32.194Z,36.67
2022-12-18T06:14:33.694Z,36.89
2022-12-18T06:24:35.177Z,36.30
2022-12-18T06:34:38.318Z,37.01
2022-12-18T06:44:39.774Z,36.80
2022-12-18T06:54:41.225Z,36.94
2022-12-18T07:04:42.670Z,36.69
2022-12-18T07:14:44.178Z,36.75
2022-12-18T07:24:45.801Z,36.37
2022-12-18T07:34:47.280Z,36.87
2022-12-18T07:44:48.877Z,36.81
2022-12-18T07:54:50.871Z,36.51
2022-12-18T08:04:52.283Z,36.16
2022-12-18T08:14:54.093Z,36.25
2022-12-18T08:24:55.538Z,35.64
2022-12-18T08:34:56.928Z,34.75
2022-12-18T08:44:58.301Z,34.79
2022-12-18T08:54:59.693Z,34.78
2022-12-18T09:05:01.108Z,34.27
2022-12-18T09:15:02.581Z,33.87
2022-12-18T09:25:08.869Z,33.99
2022-12-18T09:35:10.574Z,33.65
2022-12-18T09:45:13.836Z,33.84
2022-12-18T09:55:37.334Z,34.23
2022-12-18T10:05:49.212Z,33.73
2022-12-18T10:16:02.787Z,34.13
2022-12-18T10:26:10.761Z,34.12
2022-12-18T10:36:12.408Z,34.23
2022-12-18T10:46:16.778Z,34.50
2022-12-18T10:56:20.654Z,34.40
2022-12-18T11:06:25.155Z,34.29
2022-12-18T11:16:27.036Z,34.33
2022-12-18T11:26:35.233Z,33.66
2022-12-18T11:36:42.036Z,34.29
2022-12-18T11:46:49.332Z,34.02
2022-12-18T11:56:52.393Z,34.38
2022-12-18T12:07:03.078Z,34.77
2022-12-18T12:17:11.747Z,34.40
2022-12-18T12:27:34.912Z,34.19
2022-12-18T12:38:08.825Z,34.48
2022-12-18T12:48:43.449Z,34.89
2022-12-18T12:59:15.047Z,34.43
2022-12-18T13:09:16.421Z,34.34
2022-12-18T13:19:23.165Z,34.36
2022-12-18T13:29:44.405Z,34.73
2022-12-18T13:39:45.918Z,34.91
2022-12-18T13:49:47.649Z,34.68
2022-12-18T13:59:49.211Z,34.88
2022-12-18T14:09:55.618Z,35.23
2022-12-18T14:20:03.721Z,35.55
2022-12-18T14:30:29.222Z,34.98
2022-12-18T14:40:30.740Z,34.94
2022-12-18T14:50:32.116Z,35.88
2022-12-18T15:00:33.615Z,35.95
2022-12-18T15:10:35.270Z,35.55
2022-12-18T15:20:50.700Z,35.57
2022-12-18T15:30:59.688Z,35.50
2022-12-18T15:41:01.025Z,35.02
2022-12-18T15:51:02.405Z,35.19
2022-12-18T16:01:03.915Z,35.64
2022-12-18T16:11:05.516Z,34.17
2022-12-18T16:21:06.890Z,34.99
2022-12-18T16:31:08.494Z,35.06
2022-12-18T16:41:34.303Z,35.16
2022-12-18T16:51:35.961Z,34.67
2022-12-18T17:01:37.577Z,34.56
2022-12-18T17:11:38.992Z,34.97
2022-12-18T17:21:40.445Z,35.04
2022-12-18T17:31:42.702Z,34.54
2022-12-18T17:41:44.317Z,34.86
2022-12-18T17:51:45.718Z,34.80
2022-12-18T18:01:47.331Z,35.17
2022-12-18T18:12:07.588Z,34.99
2022-12-18T18:22:09.206Z,34.80
2022-12-18T18:32:10.644Z,34.86
2022-12-18T18:42:12.101Z,34.90
2022-12-18T18:52:13.495Z,35.24
2022-12-18T19:02:15.615Z,35.35
2022-12-18T19:12:39.288Z,35.02
2022-12-18T19:22:42.017Z,34.95
2022-12-18T19:32:44.652Z,35.08
2022-12-18T19:42:46.260Z,34.46
2022-12-18T19:52:49.283Z,34.24
2022-12-18T20:02:51.012Z,34.66
2022-12-18T20:12:52.498Z,34.63
2022-12-18T20:22:56.024Z,34.67
2022-12-18T20:32:57.490Z,35.10
2022-12-18T20:42:58.883Z,34.69
2022-12-18T20:53:00.292Z,35.31
2022-12-18T21:03:01.842Z,34.77
2022-12-18T21:13:06.105Z,35.02
2022-12-18T21:23:16.662Z,35.24
2022-12-18T21:33:18.435Z,35.30
2022-12-18T21:43:38.293Z,35.61
2022-12-18T21:53:39.688Z,35.79
2022-12-18T22:03:41.318Z,35.87
2022-12-18T22:13:42.739Z,35.65
2022-12-18T22:23:44.127Z,35.38
2022-12-18T22:33:45.620Z,35.79
2022-12-18T22:43:48.961Z,35.56
2022-12-18T22:53:50.479Z,35.21
2022-12-18T23:03:52.262Z,35.45
2022-12-18T23:13:54.152Z,35.53
2022-12-18T23:23:58.977Z,35.42
2022-12-18T23:34:00.730Z,35.52
2022-12-18T23:44:05.085Z,35.67
2022-12-18T23:54:06.593Z,35.55
